sensor_id;sensor_type;location;lat;lon;timestamp;P1;durP1;ratioP1;P2;durP2;ratioP2
49828;SDS011;35723;51.194;5.112;2023-04-06T00:00:55;39.80;;;19.85;;
49828;SDS011;35723;51.194;5.112;2023-04-06T00:03:21;37.13;;;20.48;;
49828;SDS011;35723;51.194;5.112;2023-04-06T00:05:47;39.15;;;20.33;;
49828;SDS011;35723;51.194;5.112;2023-04-06T00:08:13;39.72;;;20.10;;
49828;SDS011;35723;51.194;5.112;2023-04-06T00:10:39;42.88;;;20.42;;
49828;SDS011;35723;51.194;5.112;2023-04-06T00:13:05;36.00;;;19.35;;
49828;SDS011;35723;51.194;5.112;2023-04-06T00:15:32;36.05;;;19.15;;
49828;SDS011;35723;51.194;5.112;2023-04-06T00:17:58;35.20;;;18.95;;
49828;SDS011;35723;51.194;5.112;2023-04-06T00:20:24;37.78;;;20.10;;
49828;SDS011;35723;51.194;5.112;2023-04-06T00:22:50;36.05;;;19.27;;
49828;SDS011;35723;51.194;5.112;2023-04-06T00:25:16;36.25;;;19.67;;
49828;SDS011;35723;51.194;5.112;2023-04-06T00:27:41;38.03;;;19.58;;
49828;SDS011;35723;51.194;5.112;2023-04-06T00:30:08;39.33;;;19.83;;
49828;SDS011;35723;51.194;5.112;2023-04-06T00:32:34;36.75;;;19.33;;
49828;SDS011;35723;51.194;5.112;2023-04-06T00:35:04;39.75;;;19.95;;
49828;SDS011;35723;51.194;5.112;2023-04-06T00:37:31;35.67;;;19.80;;
49828;SDS011;35723;51.194;5.112;2023-04-06T00:39:57;41.58;;;19.92;;
49828;SDS011;35723;51.194;5.112;2023-04-06T00:42:23;37.90;;;19.77;;
49828;SDS011;35723;51.194;5.112;2023-04-06T00:44:56;37.30;;;20.02;;
49828;SDS011;35723;51.194;5.112;2023-04-06T00:47:24;38.90;;;19.17;;
49828;SDS011;35723;51.194;5.112;2023-04-06T00:49:53;38.67;;;19.92;;
49828;SDS011;35723;51.194;5.112;2023-04-06T00:52:20;37.25;;;19.00;;
49828;SDS011;35723;51.194;5.112;2023-04-06T00:54:46;36.92;;;20.10;;
49828;SDS011;35723;51.194;5.112;2023-04-06T00:57:12;39.30;;;19.83;;
49828;SDS011;35723;51.194;5.112;2023-04-06T00:59:40;39.75;;;20.50;;
49828;SDS011;35723;51.194;5.112;2023-04-06T01:02:07;37.95;;;19.42;;
49828;SDS011;35723;51.194;5.112;2023-04-06T01:04:34;37.95;;;19.73;;
49828;SDS011;35723;51.194;5.112;2023-04-06T01:07:00;39.22;;;19.48;;
49828;SDS011;35723;51.194;5.112;2023-04-06T01:09:29;40.83;;;19.30;;
49828;SDS011;35723;51.194;5.112;2023-04-06T01:11:56;38.03;;;19.35;;
49828;SDS011;35723;51.194;5.112;2023-04-06T01:14:23;39.70;;;18.85;;
49828;SDS011;35723;51.194;5.112;2023-04-06T01:16:50;36.80;;;19.38;;
49828;SDS011;35723;51.194;5.112;2023-04-06T01:19:16;36.65;;;19.38;;
49828;SDS011;35723;51.194;5.112;2023-04-06T01:21:41;41.70;;;20.38;;
49828;SDS011;35723;51.194;5.112;2023-04-06T01:24:08;39.05;;;18.92;;
49828;SDS011;35723;51.194;5.112;2023-04-06T01:26:34;37.38;;;19.70;;
49828;SDS011;35723;51.194;5.112;2023-04-06T01:29:01;40.38;;;19.25;;
49828;SDS011;35723;51.194;5.112;2023-04-06T01:31:28;35.22;;;18.42;;
49828;SDS011;35723;51.194;5.112;2023-04-06T01:33:54;37.42;;;18.90;;
49828;SDS011;35723;51.194;5.112;2023-04-06T01:36:20;37.08;;;18.92;;
49828;SDS011;35723;51.194;5.112;2023-04-06T01:38:46;38.88;;;18.58;;
49828;SDS011;35723;51.194;5.112;2023-04-06T01:41:12;38.58;;;19.02;;
49828;SDS011;35723;51.194;5.112;2023-04-06T01:43:38;39.30;;;19.52;;
49828;SDS011;35723;51.194;5.112;2023-04-06T01:46:04;35.47;;;18.55;;
49828;SDS011;35723;51.194;5.112;2023-04-06T01:48:30;38.05;;;18.45;;
49828;SDS011;35723;51.194;5.112;2023-04-06T01:50:56;40.45;;;19.60;;
49828;SDS011;35723;51.194;5.112;2023-04-06T01:53:21;41.83;;;19.40;;
49828;SDS011;35723;51.194;5.112;2023-04-06T01:55:47;37.22;;;19.42;;
49828;SDS011;35723;51.194;5.112;2023-04-06T01:58:13;36.88;;;19.20;;
49828;SDS011;35723;51.194;5.112;2023-04-06T02:00:39;37.03;;;19.10;;
49828;SDS011;35723;51.194;5.112;2023-04-06T02:03:05;40.10;;;18.73;;
49828;SDS011;35723;51.194;5.112;2023-04-06T02:05:31;37.72;;;19.70;;
49828;SDS011;35723;51.194;5.112;2023-04-06T02:08:02;37.38;;;18.73;;
49828;SDS011;35723;51.194;5.112;2023-04-06T02:10:32;42.08;;;19.52;;
49828;SDS011;35723;51.194;5.112;2023-04-06T02:12:58;39.00;;;19.35;;
49828;SDS011;35723;51.194;5.112;2023-04-06T02:15:25;39.80;;;19.27;;
49828;SDS011;35723;51.194;5.112;2023-04-06T02:17:51;36.45;;;19.33;;
49828;SDS011;35723;51.194;5.112;2023-04-06T02:20:16;34.72;;;19.27;;
49828;SDS011;35723;51.194;5.112;2023-04-06T02:22:42;35.63;;;18.67;;
49828;SDS011;35723;51.194;5.112;2023-04-06T02:25:08;40.45;;;18.95;;
49828;SDS011;35723;51.194;5.112;2023-04-06T02:27:34;35.85;;;19.08;;
49828;SDS011;35723;51.194;5.112;2023-04-06T02:30:01;37.92;;;19.30;;
49828;SDS011;35723;51.194;5.112;2023-04-06T02:32:27;38.55;;;19.75;;
49828;SDS011;35723;51.194;5.112;2023-04-06T02:34:53;40.45;;;20.67;;
49828;SDS011;35723;51.194;5.112;2023-04-06T02:37:18;37.25;;;19.58;;
49828;SDS011;35723;51.194;5.112;2023-04-06T02:39:44;35.97;;;18.98;;
49828;SDS011;35723;51.194;5.112;2023-04-06T02:42:10;36.47;;;18.58;;
49828;SDS011;35723;51.194;5.112;2023-04-06T02:44:36;38.47;;;19.67;;
49828;SDS011;35723;51.194;5.112;2023-04-06T02:47:01;39.25;;;19.13;;
49828;SDS011;35723;51.194;5.112;2023-04-06T02:49:27;40.00;;;20.42;;
49828;SDS011;35723;51.194;5.112;2023-04-06T02:51:53;38.88;;;20.33;;
49828;SDS011;35723;51.194;5.112;2023-04-06T02:54:18;38.42;;;18.98;;
49828;SDS011;35723;51.194;5.112;2023-04-06T02:56:44;37.58;;;19.92;;
49828;SDS011;35723;51.194;5.112;2023-04-06T02:59:10;39.60;;;19.92;;
49828;SDS011;35723;51.194;5.112;2023-04-06T03:01:36;40.80;;;19.77;;
49828;SDS011;35723;51.194;5.112;2023-04-06T03:04:02;41.33;;;19.70;;
49828;SDS011;35723;51.194;5.112;2023-04-06T03:06:28;40.85;;;19.55;;
49828;SDS011;35723;51.194;5.112;2023-04-06T03:08:53;37.75;;;20.30;;
49828;SDS011;35723;51.194;5.112;2023-04-06T03:11:19;40.88;;;20.25;;
49828;SDS011;35723;51.194;5.112;2023-04-06T03:13:45;41.80;;;20.13;;
49828;SDS011;35723;51.194;5.112;2023-04-06T03:16:11;43.63;;;20.38;;
49828;SDS011;35723;51.194;5.112;2023-04-06T03:18:37;38.00;;;18.92;;
49828;SDS011;35723;51.194;5.112;2023-04-06T03:21:02;41.35;;;20.08;;
49828;SDS011;35723;51.194;5.112;2023-04-06T03:23:28;41.28;;;20.33;;
49828;SDS011;35723;51.194;5.112;2023-04-06T03:25:54;40.00;;;19.60;;
49828;SDS011;35723;51.194;5.112;2023-04-06T03:28:19;41.97;;;21.52;;
49828;SDS011;35723;51.194;5.112;2023-04-06T03:30:45;40.42;;;19.70;;
49828;SDS011;35723;51.194;5.112;2023-04-06T03:33:11;44.78;;;21.42;;
49828;SDS011;35723;51.194;5.112;2023-04-06T03:35:37;41.53;;;20.40;;
49828;SDS011;35723;51.194;5.112;2023-04-06T03:38:03;38.42;;;21.00;;
49828;SDS011;35723;51.194;5.112;2023-04-06T03:40:30;40.13;;;21.15;;
49828;SDS011;35723;51.194;5.112;2023-04-06T03:42:56;39.90;;;19.48;;
49828;SDS011;35723;51.194;5.112;2023-04-06T03:45:22;40.08;;;20.52;;
49828;SDS011;35723;51.194;5.112;2023-04-06T03:47:47;38.35;;;19.58;;
49828;SDS011;35723;51.194;5.112;2023-04-06T03:50:13;36.95;;;19.23;;
49828;SDS011;35723;51.194;5.112;2023-04-06T03:52:39;39.92;;;20.70;;
49828;SDS011;35723;51.194;5.112;2023-04-06T03:55:05;42.78;;;20.63;;
49828;SDS011;35723;51.194;5.112;2023-04-06T03:57:32;39.08;;;20.85;;
49828;SDS011;35723;51.194;5.112;2023-04-06T03:59:57;40.22;;;20.35;;
49828;SDS011;35723;51.194;5.112;2023-04-06T04:02:25;40.20;;;20.85;;
49828;SDS011;35723;51.194;5.112;2023-04-06T04:04:50;38.58;;;20.58;;
49828;SDS011;35723;51.194;5.112;2023-04-06T04:07:16;46.10;;;20.70;;
49828;SDS011;35723;51.194;5.112;2023-04-06T04:09:41;42.05;;;20.83;;
49828;SDS011;35723;51.194;5.112;2023-04-06T04:12:07;38.28;;;20.20;;
49828;SDS011;35723;51.194;5.112;2023-04-06T04:14:33;41.47;;;20.08;;
49828;SDS011;35723;51.194;5.112;2023-04-06T04:16:58;39.55;;;19.90;;
49828;SDS011;35723;51.194;5.112;2023-04-06T04:19:24;39.92;;;20.17;;
49828;SDS011;35723;51.194;5.112;2023-04-06T04:21:50;39.58;;;21.23;;
49828;SDS011;35723;51.194;5.112;2023-04-06T04:24:15;40.70;;;19.77;;
49828;SDS011;35723;51.194;5.112;2023-04-06T04:26:41;38.17;;;20.23;;
49828;SDS011;35723;51.194;5.112;2023-04-06T04:29:07;43.33;;;20.23;;
49828;SDS011;35723;51.194;5.112;2023-04-06T04:31:33;41.53;;;20.05;;
49828;SDS011;35723;51.194;5.112;2023-04-06T04:33:59;39.80;;;19.88;;
49828;SDS011;35723;51.194;5.112;2023-04-06T04:36:25;39.65;;;19.65;;
49828;SDS011;35723;51.194;5.112;2023-04-06T04:38:51;36.75;;;19.83;;
49828;SDS011;35723;51.194;5.112;2023-04-06T04:41:17;40.15;;;20.30;;
49828;SDS011;35723;51.194;5.112;2023-04-06T04:43:43;48.55;;;20.65;;
49828;SDS011;35723;51.194;5.112;2023-04-06T04:46:09;37.28;;;20.55;;
49828;SDS011;35723;51.194;5.112;2023-04-06T04:48:35;37.60;;;19.92;;
49828;SDS011;35723;51.194;5.112;2023-04-06T04:51:00;39.67;;;19.50;;
49828;SDS011;35723;51.194;5.112;2023-04-06T04:53:26;39.28;;;20.55;;
49828;SDS011;35723;51.194;5.112;2023-04-06T04:55:52;38.50;;;19.92;;
49828;SDS011;35723;51.194;5.112;2023-04-06T04:58:18;40.28;;;20.30;;
49828;SDS011;35723;51.194;5.112;2023-04-06T05:00:44;42.42;;;21.15;;
49828;SDS011;35723;51.194;5.112;2023-04-06T05:03:18;41.28;;;19.70;;
49828;SDS011;35723;51.194;5.112;2023-04-06T05:05:47;41.28;;;19.85;;
49828;SDS011;35723;51.194;5.112;2023-04-06T05:08:12;42.28;;;20.98;;
49828;SDS011;35723;51.194;5.112;2023-04-06T05:10:38;40.80;;;20.75;;
49828;SDS011;35723;51.194;5.112;2023-04-06T05:13:04;41.42;;;20.10;;
49828;SDS011;35723;51.194;5.112;2023-04-06T05:15:30;41.45;;;20.15;;
49828;SDS011;35723;51.194;5.112;2023-04-06T05:17:56;41.88;;;19.67;;
49828;SDS011;35723;51.194;5.112;2023-04-06T05:20:22;40.17;;;19.85;;
49828;SDS011;35723;51.194;5.112;2023-04-06T05:22:47;45.58;;;21.05;;
49828;SDS011;35723;51.194;5.112;2023-04-06T05:25:13;40.70;;;20.23;;
49828;SDS011;35723;51.194;5.112;2023-04-06T05:27:40;40.38;;;20.45;;
49828;SDS011;35723;51.194;5.112;2023-04-06T05:30:06;39.10;;;20.48;;
49828;SDS011;35723;51.194;5.112;2023-04-06T05:32:32;43.60;;;19.92;;
49828;SDS011;35723;51.194;5.112;2023-04-06T05:34:59;38.88;;;20.30;;
49828;SDS011;35723;51.194;5.112;2023-04-06T05:37:24;41.22;;;21.00;;
49828;SDS011;35723;51.194;5.112;2023-04-06T05:39:50;41.50;;;21.05;;
49828;SDS011;35723;51.194;5.112;2023-04-06T05:42:16;44.97;;;20.38;;
49828;SDS011;35723;51.194;5.112;2023-04-06T05:44:42;41.92;;;20.23;;
49828;SDS011;35723;51.194;5.112;2023-04-06T05:47:07;40.08;;;20.15;;
49828;SDS011;35723;51.194;5.112;2023-04-06T05:49:33;42.03;;;20.10;;
49828;SDS011;35723;51.194;5.112;2023-04-06T05:52:00;37.47;;;19.95;;
49828;SDS011;35723;51.194;5.112;2023-04-06T05:54:26;39.22;;;19.92;;
49828;SDS011;35723;51.194;5.112;2023-04-06T05:56:51;37.90;;;19.30;;
49828;SDS011;35723;51.194;5.112;2023-04-06T05:59:17;39.45;;;19.40;;
49828;SDS011;35723;51.194;5.112;2023-04-06T06:01:43;45.90;;;21.15;;
49828;SDS011;35723;51.194;5.112;2023-04-06T06:04:08;38.03;;;19.25;;
49828;SDS011;35723;51.194;5.112;2023-04-06T06:06:34;39.47;;;19.55;;
49828;SDS011;35723;51.194;5.112;2023-04-06T06:09:00;38.25;;;19.05;;
49828;SDS011;35723;51.194;5.112;2023-04-06T06:11:28;42.63;;;19.25;;
49828;SDS011;35723;51.194;5.112;2023-04-06T06:13:54;39.47;;;19.45;;
49828;SDS011;35723;51.194;5.112;2023-04-06T06:16:20;42.35;;;18.73;;
49828;SDS011;35723;51.194;5.112;2023-04-06T06:18:46;40.13;;;18.60;;
49828;SDS011;35723;51.194;5.112;2023-04-06T06:21:12;35.95;;;18.98;;
49828;SDS011;35723;51.194;5.112;2023-04-06T06:23:38;40.50;;;18.77;;
49828;SDS011;35723;51.194;5.112;2023-04-06T06:26:03;38.45;;;19.40;;
49828;SDS011;35723;51.194;5.112;2023-04-06T06:28:30;37.65;;;18.60;;
49828;SDS011;35723;51.194;5.112;2023-04-06T06:30:56;38.83;;;18.73;;
49828;SDS011;35723;51.194;5.112;2023-04-06T06:33:22;36.60;;;18.73;;
49828;SDS011;35723;51.194;5.112;2023-04-06T06:35:47;35.50;;;18.00;;
49828;SDS011;35723;51.194;5.112;2023-04-06T06:38:13;41.33;;;18.38;;
49828;SDS011;35723;51.194;5.112;2023-04-06T06:40:39;36.45;;;18.60;;
49828;SDS011;35723;51.194;5.112;2023-04-06T06:43:05;35.42;;;18.23;;
49828;SDS011;35723;51.194;5.112;2023-04-06T06:45:31;39.70;;;18.83;;
49828;SDS011;35723;51.194;5.112;2023-04-06T06:47:57;39.08;;;17.40;;
49828;SDS011;35723;51.194;5.112;2023-04-06T06:50:23;38.53;;;18.70;;
49828;SDS011;35723;51.194;5.112;2023-04-06T06:52:48;40.72;;;18.33;;
49828;SDS011;35723;51.194;5.112;2023-04-06T06:55:14;38.45;;;18.20;;
49828;SDS011;35723;51.194;5.112;2023-04-06T06:57:40;39.10;;;18.33;;
49828;SDS011;35723;51.194;5.112;2023-04-06T07:00:07;36.60;;;17.40;;
49828;SDS011;35723;51.194;5.112;2023-04-06T07:02:34;39.63;;;17.42;;
49828;SDS011;35723;51.194;5.112;2023-04-06T07:05:03;39.67;;;17.40;;
49828;SDS011;35723;51.194;5.112;2023-04-06T07:07:29;36.40;;;18.25;;
49828;SDS011;35723;51.194;5.112;2023-04-06T07:09:56;35.80;;;16.70;;
49828;SDS011;35723;51.194;5.112;2023-04-06T07:12:22;39.50;;;16.70;;
49828;SDS011;35723;51.194;5.112;2023-04-06T07:14:48;40.03;;;17.48;;
49828;SDS011;35723;51.194;5.112;2023-04-06T07:17:13;32.83;;;16.48;;
49828;SDS011;35723;51.194;5.112;2023-04-06T07:19:39;36.47;;;17.30;;
49828;SDS011;35723;51.194;5.112;2023-04-06T07:22:05;32.72;;;16.52;;
49828;SDS011;35723;51.194;5.112;2023-04-06T07:24:31;32.28;;;16.73;;
49828;SDS011;35723;51.194;5.112;2023-04-06T07:26:58;34.38;;;17.02;;
49828;SDS011;35723;51.194;5.112;2023-04-06T07:29:24;37.13;;;17.33;;
49828;SDS011;35723;51.194;5.112;2023-04-06T07:31:49;34.15;;;16.75;;
49828;SDS011;35723;51.194;5.112;2023-04-06T07:34:15;58.22;;;20.17;;
49828;SDS011;35723;51.194;5.112;2023-04-06T07:36:40;35.22;;;17.40;;
49828;SDS011;35723;51.194;5.112;2023-04-06T07:39:06;35.45;;;17.30;;
49828;SDS011;35723;51.194;5.112;2023-04-06T07:41:32;38.05;;;18.15;;
49828;SDS011;35723;51.194;5.112;2023-04-06T07:43:58;40.35;;;18.42;;
49828;SDS011;35723;51.194;5.112;2023-04-06T07:46:24;38.20;;;17.08;;
49828;SDS011;35723;51.194;5.112;2023-04-06T07:48:50;34.17;;;18.10;;
49828;SDS011;35723;51.194;5.112;2023-04-06T07:51:16;35.30;;;16.80;;
49828;SDS011;35723;51.194;5.112;2023-04-06T07:53:43;34.35;;;17.20;;
49828;SDS011;35723;51.194;5.112;2023-04-06T07:56:09;36.25;;;17.48;;
49828;SDS011;35723;51.194;5.112;2023-04-06T07:58:35;36.35;;;18.13;;
49828;SDS011;35723;51.194;5.112;2023-04-06T08:01:01;36.08;;;17.58;;
49828;SDS011;35723;51.194;5.112;2023-04-06T08:03:27;32.55;;;16.67;;
49828;SDS011;35723;51.194;5.112;2023-04-06T08:05:53;34.53;;;16.88;;
49828;SDS011;35723;51.194;5.112;2023-04-06T08:08:18;35.08;;;17.23;;
49828;SDS011;35723;51.194;5.112;2023-04-06T08:10:46;38.00;;;17.02;;
49828;SDS011;35723;51.194;5.112;2023-04-06T08:13:13;33.80;;;16.58;;
49828;SDS011;35723;51.194;5.112;2023-04-06T08:15:39;34.55;;;17.58;;
49828;SDS011;35723;51.194;5.112;2023-04-06T08:18:05;41.67;;;17.75;;
49828;SDS011;35723;51.194;5.112;2023-04-06T08:20:30;40.67;;;17.67;;
49828;SDS011;35723;51.194;5.112;2023-04-06T08:22:56;36.95;;;17.05;;
49828;SDS011;35723;51.194;5.112;2023-04-06T08:25:21;34.53;;;16.92;;
49828;SDS011;35723;51.194;5.112;2023-04-06T08:27:47;35.28;;;17.77;;
49828;SDS011;35723;51.194;5.112;2023-04-06T08:30:13;38.42;;;17.88;;
49828;SDS011;35723;51.194;5.112;2023-04-06T08:32:40;38.58;;;17.35;;
49828;SDS011;35723;51.194;5.112;2023-04-06T08:35:07;34.83;;;17.15;;
49828;SDS011;35723;51.194;5.112;2023-04-06T08:37:33;37.50;;;17.50;;
49828;SDS011;35723;51.194;5.112;2023-04-06T08:39:59;38.10;;;17.17;;
49828;SDS011;35723;51.194;5.112;2023-04-06T08:42:25;36.38;;;17.05;;
49828;SDS011;35723;51.194;5.112;2023-04-06T08:44:51;38.70;;;16.63;;
49828;SDS011;35723;51.194;5.112;2023-04-06T08:47:17;35.33;;;16.33;;
49828;SDS011;35723;51.194;5.112;2023-04-06T08:49:44;32.05;;;16.75;;
49828;SDS011;35723;51.194;5.112;2023-04-06T08:52:11;33.40;;;15.98;;
49828;SDS011;35723;51.194;5.112;2023-04-06T08:54:37;33.15;;;15.70;;
49828;SDS011;35723;51.194;5.112;2023-04-06T08:57:03;34.78;;;15.82;;
49828;SDS011;35723;51.194;5.112;2023-04-06T08:59:30;33.58;;;16.38;;
49828;SDS011;35723;51.194;5.112;2023-04-06T09:01:57;31.38;;;15.90;;
49828;SDS011;35723;51.194;5.112;2023-04-06T09:04:24;34.72;;;17.27;;
49828;SDS011;35723;51.194;5.112;2023-04-06T09:06:51;29.55;;;15.82;;
49828;SDS011;35723;51.194;5.112;2023-04-06T09:09:17;30.10;;;15.48;;
49828;SDS011;35723;51.194;5.112;2023-04-06T09:14:11;30.73;;;14.98;;
49828;SDS011;35723;51.194;5.112;2023-04-06T09:16:43;27.88;;;14.40;;
49828;SDS011;35723;51.194;5.112;2023-04-06T09:19:10;31.48;;;15.25;;
49828;SDS011;35723;51.194;5.112;2023-04-06T09:21:37;31.13;;;16.08;;
49828;SDS011;35723;51.194;5.112;2023-04-06T09:24:05;37.45;;;14.95;;
49828;SDS011;35723;51.194;5.112;2023-04-06T09:26:32;29.40;;;14.13;;
49828;SDS011;35723;51.194;5.112;2023-04-06T09:28:58;31.25;;;13.90;;
49828;SDS011;35723;51.194;5.112;2023-04-06T09:31:35;26.65;;;14.10;;
49828;SDS011;35723;51.194;5.112;2023-04-06T09:34:01;27.58;;;13.57;;
49828;SDS011;35723;51.194;5.112;2023-04-06T09:36:36;28.55;;;13.10;;
49828;SDS011;35723;51.194;5.112;2023-04-06T09:39:05;26.70;;;12.70;;
49828;SDS011;35723;51.194;5.112;2023-04-06T09:41:32;26.65;;;12.93;;
49828;SDS011;35723;51.194;5.112;2023-04-06T09:44:02;27.25;;;11.95;;
49828;SDS011;35723;51.194;5.112;2023-04-06T09:46:28;23.40;;;11.40;;
49828;SDS011;35723;51.194;5.112;2023-04-06T09:48:57;23.33;;;11.90;;
49828;SDS011;35723;51.194;5.112;2023-04-06T09:51:24;25.08;;;11.65;;
49828;SDS011;35723;51.194;5.112;2023-04-06T09:53:52;24.98;;;11.20;;
49828;SDS011;35723;51.194;5.112;2023-04-06T09:56:20;23.50;;;11.82;;
49828;SDS011;35723;51.194;5.112;2023-04-06T09:58:52;25.60;;;11.55;;
49828;SDS011;35723;51.194;5.112;2023-04-06T10:01:26;25.25;;;11.30;;
49828;SDS011;35723;51.194;5.112;2023-04-06T10:03:55;23.92;;;10.85;;
49828;SDS011;35723;51.194;5.112;2023-04-06T10:06:28;26.15;;;11.57;;
49828;SDS011;35723;51.194;5.112;2023-04-06T10:09:00;23.40;;;11.23;;
49828;SDS011;35723;51.194;5.112;2023-04-06T10:11:29;24.58;;;11.40;;
49828;SDS011;35723;51.194;5.112;2023-04-06T10:13:56;23.60;;;10.93;;
49828;SDS011;35723;51.194;5.112;2023-04-06T10:16:22;25.83;;;11.98;;
49828;SDS011;35723;51.194;5.112;2023-04-06T10:18:51;24.92;;;11.50;;
49828;SDS011;35723;51.194;5.112;2023-04-06T10:21:21;23.25;;;10.85;;
49828;SDS011;35723;51.194;5.112;2023-04-06T10:23:51;23.40;;;11.27;;
49828;SDS011;35723;51.194;5.112;2023-04-06T10:26:20;24.27;;;11.25;;
49828;SDS011;35723;51.194;5.112;2023-04-06T10:28:47;23.88;;;11.50;;
49828;SDS011;35723;51.194;5.112;2023-04-06T10:31:15;25.35;;;12.10;;
49828;SDS011;35723;51.194;5.112;2023-04-06T10:34:02;23.58;;;11.32;;
49828;SDS011;35723;51.194;5.112;2023-04-06T10:36:31;24.50;;;11.75;;
49828;SDS011;35723;51.194;5.112;2023-04-06T10:38:59;25.88;;;12.35;;
49828;SDS011;35723;51.194;5.112;2023-04-06T10:41:33;26.48;;;12.50;;
49828;SDS011;35723;51.194;5.112;2023-04-06T10:44:01;29.48;;;12.90;;
49828;SDS011;35723;51.194;5.112;2023-04-06T10:46:29;28.40;;;13.48;;
49828;SDS011;35723;51.194;5.112;2023-04-06T10:48:56;27.75;;;12.20;;
49828;SDS011;35723;51.194;5.112;2023-04-06T10:51:26;27.23;;;13.15;;
49828;SDS011;35723;51.194;5.112;2023-04-06T10:53:53;28.70;;;13.05;;
49828;SDS011;35723;51.194;5.112;2023-04-06T10:56:24;28.70;;;13.70;;
49828;SDS011;35723;51.194;5.112;2023-04-06T10:58:53;26.77;;;13.93;;
49828;SDS011;35723;51.194;5.112;2023-04-06T11:01:23;28.20;;;13.60;;
49828;SDS011;35723;51.194;5.112;2023-04-06T11:03:55;29.02;;;13.48;;
49828;SDS011;35723;51.194;5.112;2023-04-06T11:06:24;31.08;;;14.38;;
49828;SDS011;35723;51.194;5.112;2023-04-06T11:08:52;28.02;;;13.90;;
49828;SDS011;35723;51.194;5.112;2023-04-06T11:11:19;29.58;;;13.32;;
49828;SDS011;35723;51.194;5.112;2023-04-06T11:13:49;28.30;;;14.48;;
49828;SDS011;35723;51.194;5.112;2023-04-06T11:16:20;29.17;;;14.68;;
49828;SDS011;35723;51.194;5.112;2023-04-06T11:18:55;28.38;;;13.60;;
49828;SDS011;35723;51.194;5.112;2023-04-06T11:24:05;28.83;;;13.95;;
49828;SDS011;35723;51.194;5.112;2023-04-06T11:26:44;27.88;;;14.25;;
49828;SDS011;35723;51.194;5.112;2023-04-06T11:29:19;31.85;;;14.80;;
49828;SDS011;35723;51.194;5.112;2023-04-06T11:31:47;29.63;;;14.50;;
49828;SDS011;35723;51.194;5.112;2023-04-06T11:34:13;27.75;;;14.38;;
49828;SDS011;35723;51.194;5.112;2023-04-06T11:36:43;26.77;;;14.00;;
49828;SDS011;35723;51.194;5.112;2023-04-06T11:39:11;26.80;;;14.13;;
49828;SDS011;35723;51.194;5.112;2023-04-06T11:41:38;27.45;;;13.75;;
49828;SDS011;35723;51.194;5.112;2023-04-06T11:44:04;27.33;;;13.32;;
49828;SDS011;35723;51.194;5.112;2023-04-06T11:46:31;29.13;;;13.63;;
49828;SDS011;35723;51.194;5.112;2023-04-06T11:49:00;27.42;;;14.02;;
49828;SDS011;35723;51.194;5.112;2023-04-06T11:51:27;27.42;;;13.75;;
49828;SDS011;35723;51.194;5.112;2023-04-06T11:53:53;28.10;;;13.73;;
49828;SDS011;35723;51.194;5.112;2023-04-06T11:56:27;26.98;;;14.10;;
49828;SDS011;35723;51.194;5.112;2023-04-06T11:58:54;29.25;;;14.02;;
49828;SDS011;35723;51.194;5.112;2023-04-06T12:01:21;26.83;;;13.85;;
49828;SDS011;35723;51.194;5.112;2023-04-06T12:03:47;26.15;;;13.15;;
49828;SDS011;35723;51.194;5.112;2023-04-06T12:06:13;26.60;;;13.82;;
49828;SDS011;35723;51.194;5.112;2023-04-06T12:08:39;28.35;;;13.90;;
49828;SDS011;35723;51.194;5.112;2023-04-06T12:11:05;28.30;;;13.18;;
49828;SDS011;35723;51.194;5.112;2023-04-06T12:13:31;25.17;;;12.98;;
49828;SDS011;35723;51.194;5.112;2023-04-06T12:15:56;28.40;;;13.63;;
49828;SDS011;35723;51.194;5.112;2023-04-06T12:18:22;26.40;;;13.52;;
49828;SDS011;35723;51.194;5.112;2023-04-06T12:20:48;26.65;;;13.68;;
49828;SDS011;35723;51.194;5.112;2023-04-06T12:23:13;27.17;;;14.02;;
49828;SDS011;35723;51.194;5.112;2023-04-06T12:25:39;28.90;;;14.40;;
49828;SDS011;35723;51.194;5.112;2023-04-06T12:28:06;28.88;;;13.90;;
49828;SDS011;35723;51.194;5.112;2023-04-06T12:30:32;27.63;;;13.70;;
49828;SDS011;35723;51.194;5.112;2023-04-06T12:32:57;27.10;;;14.13;;
49828;SDS011;35723;51.194;5.112;2023-04-06T12:35:23;27.77;;;13.85;;
49828;SDS011;35723;51.194;5.112;2023-04-06T12:37:49;27.80;;;13.88;;
49828;SDS011;35723;51.194;5.112;2023-04-06T12:40:14;25.67;;;13.82;;
49828;SDS011;35723;51.194;5.112;2023-04-06T12:42:40;27.30;;;14.32;;
49828;SDS011;35723;51.194;5.112;2023-04-06T12:45:07;27.65;;;13.15;;
49828;SDS011;35723;51.194;5.112;2023-04-06T12:47:33;26.23;;;12.77;;
49828;SDS011;35723;51.194;5.112;2023-04-06T12:50:01;26.00;;;12.38;;
49828;SDS011;35723;51.194;5.112;2023-04-06T12:52:27;26.50;;;12.93;;
49828;SDS011;35723;51.194;5.112;2023-04-06T12:54:55;25.58;;;12.52;;
49828;SDS011;35723;51.194;5.112;2023-04-06T12:57:21;28.67;;;13.75;;
49828;SDS011;35723;51.194;5.112;2023-04-06T12:59:47;26.52;;;13.75;;
49828;SDS011;35723;51.194;5.112;2023-04-06T13:02:12;33.08;;;17.17;;
49828;SDS011;35723;51.194;5.112;2023-04-06T13:04:38;27.83;;;13.73;;
49828;SDS011;35723;51.194;5.112;2023-04-06T13:07:04;29.23;;;14.80;;
49828;SDS011;35723;51.194;5.112;2023-04-06T13:09:30;27.90;;;13.68;;
49828;SDS011;35723;51.194;5.112;2023-04-06T13:11:55;30.15;;;16.90;;
49828;SDS011;35723;51.194;5.112;2023-04-06T13:14:21;25.80;;;13.93;;
49828;SDS011;35723;51.194;5.112;2023-04-06T13:16:47;31.52;;;17.25;;
49828;SDS011;35723;51.194;5.112;2023-04-06T13:19:12;33.00;;;17.75;;
49828;SDS011;35723;51.194;5.112;2023-04-06T13:21:38;30.27;;;15.90;;
49828;SDS011;35723;51.194;5.112;2023-04-06T13:24:04;26.17;;;13.40;;
49828;SDS011;35723;51.194;5.112;2023-04-06T13:26:30;27.80;;;13.93;;
49828;SDS011;35723;51.194;5.112;2023-04-06T13:28:56;27.33;;;13.48;;
49828;SDS011;35723;51.194;5.112;2023-04-06T13:31:22;29.17;;;14.50;;
49828;SDS011;35723;51.194;5.112;2023-04-06T13:33:47;26.63;;;13.80;;
49828;SDS011;35723;51.194;5.112;2023-04-06T13:36:13;29.10;;;14.43;;
49828;SDS011;35723;51.194;5.112;2023-04-06T13:38:39;26.65;;;13.45;;
49828;SDS011;35723;51.194;5.112;2023-04-06T13:41:05;24.52;;;12.85;;
49828;SDS011;35723;51.194;5.112;2023-04-06T13:43:31;26.08;;;13.30;;
49828;SDS011;35723;51.194;5.112;2023-04-06T13:45:57;26.77;;;13.77;;
49828;SDS011;35723;51.194;5.112;2023-04-06T13:48:24;27.05;;;15.05;;
49828;SDS011;35723;51.194;5.112;2023-04-06T13:50:53;29.02;;;15.63;;
49828;SDS011;35723;51.194;5.112;2023-04-06T13:53:19;29.55;;;16.17;;
49828;SDS011;35723;51.194;5.112;2023-04-06T13:55:51;30.00;;;16.50;;
49828;SDS011;35723;51.194;5.112;2023-04-06T13:58:18;28.05;;;14.57;;
49828;SDS011;35723;51.194;5.112;2023-04-06T14:00:43;30.63;;;14.98;;
49828;SDS011;35723;51.194;5.112;2023-04-06T14:03:09;29.83;;;14.88;;
49828;SDS011;35723;51.194;5.112;2023-04-06T14:05:35;27.88;;;14.75;;
49828;SDS011;35723;51.194;5.112;2023-04-06T14:08:01;28.55;;;15.10;;
49828;SDS011;35723;51.194;5.112;2023-04-06T14:10:27;28.23;;;15.10;;
49828;SDS011;35723;51.194;5.112;2023-04-06T14:12:52;29.00;;;15.07;;
49828;SDS011;35723;51.194;5.112;2023-04-06T14:15:18;27.83;;;14.48;;
49828;SDS011;35723;51.194;5.112;2023-04-06T14:17:44;27.40;;;14.27;;
49828;SDS011;35723;51.194;5.112;2023-04-06T14:20:10;28.90;;;15.15;;
49828;SDS011;35723;51.194;5.112;2023-04-06T14:22:39;27.08;;;14.20;;